sensor_id;sensor_type;location;lat;lon;timestamp;pressure;altitude;pressure_sealevel;temperature;humidity
8717;BME280;4395;48.554;8.820;2023-10-09T00:00:38;96543.63;;;15.10;52.19
8717;BME280;4395;48.554;8.820;2023-10-09T00:02:54;96542.31;;;15.13;52.40
8717;BME280;4395;48.554;8.820;2023-10-09T00:05:00;96538.94;;;15.07;52.40
8717;BME280;4395;48.554;8.820;2023-10-09T00:07:04;96538.41;;;15.05;52.33
8717;BME280;4395;48.554;8.820;2023-10-09T00:09:10;96537.34;;;15.01;52.22
8717;BME280;4395;48.554;8.820;2023-10-09T00:11:33;96533.16;;;15.00;52.37
8717;BME280;4395;48.554;8.820;2023-10-09T00:13:44;96533.69;;;14.97;52.49
8717;BME280;4395;48.554;8.820;2023-10-09T00:15:54;96526.63;;;14.93;52.61
8717;BME280;4395;48.554;8.820;2023-10-09T00:18:00;96524.78;;;14.88;53.08
8717;BME280;4395;48.554;8.820;2023-10-09T00:20:07;96527.16;;;14.90;53.03
8717;BME280;4395;48.554;8.820;2023-10-09T00:22:19;96519.03;;;14.86;52.63
8717;BME280;4395;48.554;8.820;2023-10-09T00:24:32;96523.25;;;14.82;52.43
8717;BME280;4395;48.554;8.820;2023-10-09T00:26:36;96523.25;;;14.82;52.95
8717;BME280;4395;48.554;8.820;2023-10-09T00:28:45;96519.03;;;14.81;53.01
8717;BME280;4395;48.554;8.820;2023-10-09T00:30:49;96516.94;;;14.78;52.93
8717;BME280;4395;48.554;8.820;2023-10-09T00:32:54;96519.56;;;14.78;53.09
8717;BME280;4395;48.554;8.820;2023-10-09T00:35:03;96515.88;;;14.74;53.06
8717;BME280;4395;48.554;8.820;2023-10-09T00:37:36;96515.63;;;14.65;53.50
8717;BME280;4395;48.554;8.820;2023-10-09T00:39:39;96512.75;;;14.67;53.15
8717;BME280;4395;48.554;8.820;2023-10-09T00:41:46;96510.13;;;14.62;53.58
8717;BME280;4395;48.554;8.820;2023-10-09T00:43:50;96506.47;;;14.63;53.57
8717;BME280;4395;48.554;8.820;2023-10-09T00:45:52;96504.66;;;14.58;53.60
8717;BME280;4395;48.554;8.820;2023-10-09T00:47:55;96503.59;;;14.54;53.54
8717;BME280;4395;48.554;8.820;2023-10-09T00:50:02;96503.31;;;14.51;54.01
8717;BME280;4395;48.554;8.820;2023-10-09T00:52:22;96502.81;;;14.44;54.30
8717;BME280;4395;48.554;8.820;2023-10-09T00:54:33;96498.56;;;14.37;53.82
8717;BME280;4395;48.554;8.820;2023-10-09T00:56:43;96494.13;;;14.38;54.34
8717;BME280;4395;48.554;8.820;2023-10-09T00:58:56;96492.06;;;14.35;54.72
8717;BME280;4395;48.554;8.820;2023-10-09T01:01:02;96489.16;;;14.36;54.17
8717;BME280;4395;48.554;8.820;2023-10-09T01:03:06;96488.91;;;14.33;53.67
8717;BME280;4395;48.554;8.820;2023-10-09T01:05:21;96487.59;;;14.35;53.67
8717;BME280;4395;48.554;8.820;2023-10-09T01:07:28;96485.50;;;14.32;53.59
8717;BME280;4395;48.554;8.820;2023-10-09T01:09:33;96482.34;;;14.35;53.64
8717;BME280;4395;48.554;8.820;2023-10-09T01:11:39;96478.41;;;14.38;53.73
8717;BME280;4395;48.554;8.820;2023-10-09T01:14:00;96480.28;;;14.43;53.78
8717;BME280;4395;48.554;8.820;2023-10-09T01:16:14;96476.09;;;14.47;53.69
8717;BME280;4395;48.554;8.820;2023-10-09T01:18:19;96477.91;;;14.51;53.73
8717;BME280;4395;48.554;8.820;2023-10-09T01:20:22;96484.19;;;14.55;53.85
8717;BME280;4395;48.554;8.820;2023-10-09T01:22:31;96478.19;;;14.55;53.57
8717;BME280;4395;48.554;8.820;2023-10-09T01:24:35;96473.72;;;14.55;53.64
8717;BME280;4395;48.554;8.820;2023-10-09T01:26:41;96473.47;;;14.57;53.87
8717;BME280;4395;48.554;8.820;2023-10-09T01:28:46;96475.56;;;14.55;53.78
8717;BME280;4395;48.554;8.820;2023-10-09T01:30:50;96467.69;;;14.55;53.62
8717;BME280;4395;48.554;8.820;2023-10-09T01:32:54;96470.31;;;14.55;53.73
8717;BME280;4395;48.554;8.820;2023-10-09T01:34:59;96471.34;;;14.54;54.18
8717;BME280;4395;48.554;8.820;2023-10-09T01:37:02;96477.38;;;14.49;54.39
8717;BME280;4395;48.554;8.820;2023-10-09T01:39:07;96465.63;;;14.47;53.97
8717;BME280;4395;48.554;8.820;2023-10-09T01:41:26;96461.41;;;14.46;53.82
8717;BME280;4395;48.554;8.820;2023-10-09T01:43:29;96459.06;;;14.44;53.49
8717;BME280;4395;48.554;8.820;2023-10-09T01:45:36;96446.97;;;14.38;53.73
8717;BME280;4395;48.554;8.820;2023-10-09T01:47:44;96448.81;;;14.32;53.56
8717;BME280;4395;48.554;8.820;2023-10-09T01:49:55;96439.91;;;14.33;53.73
8717;BME280;4395;48.554;8.820;2023-10-09T01:51:59;96446.19;;;14.32;53.56
8717;BME280;4395;48.554;8.820;2023-10-09T01:54:09;96440.69;;;14.34;53.97
8717;BME280;4395;48.554;8.820;2023-10-09T01:56:18;96443.06;;;14.30;54.29
8717;BME280;4395;48.554;8.820;2023-10-09T01:58:22;96440.16;;;14.32;54.50
8717;BME280;4395;48.554;8.820;2023-10-09T02:00:29;96442.00;;;14.31;54.45
8717;BME280;4395;48.554;8.820;2023-10-09T02:02:32;96443.06;;;14.30;54.18
8717;BME280;4395;48.554;8.820;2023-10-09T02:04:36;96441.50;;;14.24;54.94
8717;BME280;4395;48.554;8.820;2023-10-09T02:06:39;96437.28;;;14.18;54.86
8717;BME280;4395;48.554;8.820;2023-10-09T02:08:41;96443.03;;;14.15;54.88
8717;BME280;4395;48.554;8.820;2023-10-09T02:10:51;96438.34;;;14.12;55.36
8717;BME280;4395;48.554;8.820;2023-10-09T02:12:58;96439.91;;;14.08;55.98
8717;BME280;4395;48.554;8.820;2023-10-09T02:15:02;96432.56;;;14.05;56.10
8717;BME280;4395;48.554;8.820;2023-10-09T02:17:17;96432.31;;;14.01;56.32
8717;BME280;4395;48.554;8.820;2023-10-09T02:19:20;96429.16;;;13.94;56.51
8717;BME280;4395;48.554;8.820;2023-10-09T02:21:32;96430.72;;;13.90;55.89
8717;BME280;4395;48.554;8.820;2023-10-09T02:23:41;96436.22;;;13.84;56.38
8717;BME280;4395;48.554;8.820;2023-10-09T02:25:48;96430.72;;;13.80;56.50
8717;BME280;4395;48.554;8.820;2023-10-09T02:27:54;96426.78;;;13.78;56.34
8717;BME280;4395;48.554;8.820;2023-10-09T02:30:03;96430.44;;;13.77;56.73
8717;BME280;4395;48.554;8.820;2023-10-09T02:32:17;96430.97;;;13.79;57.03
8717;BME280;4395;48.554;8.820;2023-10-09T02:34:27;96437.78;;;13.75;57.47
8717;BME280;4395;48.554;8.820;2023-10-09T02:36:31;96428.38;;;13.74;57.00
8717;BME280;4395;48.554;8.820;2023-10-09T02:38:35;96426.78;;;13.73;57.42
8717;BME280;4395;48.554;8.820;2023-10-09T02:40:40;96425.47;;;13.70;56.99
8717;BME280;4395;48.554;8.820;2023-10-09T02:42:54;96429.13;;;13.69;57.24
8717;BME280;4395;48.554;8.820;2023-10-09T02:44:57;96424.16;;;13.67;57.88
8717;BME280;4395;48.554;8.820;2023-10-09T02:47:02;96426.25;;;13.65;57.67
8717;BME280;4395;48.554;8.820;2023-10-09T02:49:09;96418.16;;;13.62;57.49
8717;BME280;4395;48.554;8.820;2023-10-09T02:51:17;96424.69;;;13.59;57.35
8717;BME280;4395;48.554;8.820;2023-10-09T02:53:34;96420.75;;;13.57;57.37
8717;BME280;4395;48.554;8.820;2023-10-09T02:55:37;96422.03;;;13.54;57.60
8717;BME280;4395;48.554;8.820;2023-10-09T02:57:40;96418.38;;;13.55;56.64
8717;BME280;4395;48.554;8.820;2023-10-09T02:59:45;96418.38;;;13.55;57.11
8717;BME280;4395;48.554;8.820;2023-10-09T03:01:49;96416.53;;;13.56;57.24
8717;BME280;4395;48.554;8.820;2023-10-09T03:03:55;96422.31;;;13.58;57.12
8717;BME280;4395;48.554;8.820;2023-10-09T03:06:01;96418.66;;;13.59;57.87
8717;BME280;4395;48.554;8.820;2023-10-09T03:08:12;96422.31;;;13.58;57.88
8717;BME280;4395;48.554;8.820;2023-10-09T03:10:15;96417.88;;;13.58;57.19
8717;BME280;4395;48.554;8.820;2023-10-09T03:12:19;96420.75;;;13.57;58.40
8717;BME280;4395;48.554;8.820;2023-10-09T03:14:28;96419.41;;;13.54;58.12
8717;BME280;4395;48.554;8.820;2023-10-09T03:16:30;96416.00;;;13.54;58.16
8717;BME280;4395;48.554;8.820;2023-10-09T03:18:33;96423.59;;;13.55;57.68
8717;BME280;4395;48.554;8.820;2023-10-09T03:20:37;96420.47;;;13.53;58.83
8717;BME280;4395;48.554;8.820;2023-10-09T03:22:41;96413.69;;;13.52;59.06
8717;BME280;4395;48.554;8.820;2023-10-09T03:24:44;96403.97;;;13.53;58.99
8717;BME280;4395;48.554;8.820;2023-10-09T03:26:53;96412.91;;;13.52;58.80
8717;BME280;4395;48.554;8.820;2023-10-09T03:28:57;96405.84;;;13.52;58.84
8717;BME280;4395;48.554;8.820;2023-10-09T03:31:02;96408.44;;;13.52;58.81
8717;BME280;4395;48.554;8.820;2023-10-09T03:33:07;96404.25;;;13.51;59.12
8717;BME280;4395;48.554;8.820;2023-10-09T03:35:10;96404.78;;;13.48;58.84
8717;BME280;4395;48.554;8.820;2023-10-09T03:37:27;96407.91;;;13.45;58.62
8717;BME280;4395;48.554;8.820;2023-10-09T03:39:36;96407.63;;;13.47;58.37
8717;BME280;4395;48.554;8.820;2023-10-09T03:41:42;96403.97;;;13.43;58.32
8717;BME280;4395;48.554;8.820;2023-10-09T03:43:48;96399.00;;;13.46;58.82
8717;BME280;4395;48.554;8.820;2023-10-09T03:45:52;96406.31;;;13.44;58.50
8717;BME280;4395;48.554;8.820;2023-10-09T03:47:56;96401.88;;;13.45;58.06
8717;BME280;4395;48.554;8.820;2023-10-09T03:50:05;96401.63;;;13.46;57.40
8717;BME280;4395;48.554;8.820;2023-10-09T03:52:26;96404.50;;;13.50;57.74
8717;BME280;4395;48.554;8.820;2023-10-09T03:54:32;96403.22;;;13.52;58.38
8717;BME280;4395;48.554;8.820;2023-10-09T03:56:36;96396.66;;;13.55;57.95
8717;BME280;4395;48.554;8.820;2023-10-09T03:58:39;96400.59;;;13.57;57.76
8717;BME280;4395;48.554;8.820;2023-10-09T04:00:44;96397.97;;;13.57;58.01
8717;BME280;4395;48.554;8.820;2023-10-09T04:02:48;96395.63;;;13.61;57.66
8717;BME280;4395;48.554;8.820;2023-10-09T04:04:52;96387.78;;;13.61;57.83
8717;BME280;4395;48.554;8.820;2023-10-09T04:06:55;96387.53;;;13.62;58.01
8717;BME280;4395;48.554;8.820;2023-10-09T04:09:00;96391.72;;;13.63;58.46
8717;BME280;4395;48.554;8.820;2023-10-09T04:11:15;96389.09;;;13.63;58.72
8717;BME280;4395;48.554;8.820;2023-10-09T04:13:24;96385.94;;;13.61;58.76
8717;BME280;4395;48.554;8.820;2023-10-09T04:15:35;96386.47;;;13.58;58.37
8717;BME280;4395;48.554;8.820;2023-10-09T04:17:37;96391.97;;;13.57;58.65
8717;BME280;4395;48.554;8.820;2023-10-09T04:19:44;96386.97;;;13.55;58.75
8717;BME280;4395;48.554;8.820;2023-10-09T04:22:10;96394.28;;;13.53;59.05
8717;BME280;4395;48.554;8.820;2023-10-09T04:24:28;96398.50;;;13.49;58.89
8717;BME280;4395;48.554;8.820;2023-10-09T04:26:44;96396.66;;;13.45;58.88
8717;BME280;4395;48.554;8.820;2023-10-09T04:28:46;96391.13;;;13.41;58.65
8717;BME280;4395;48.554;8.820;2023-10-09T04:30:53;96391.13;;;13.41;58.74
8717;BME280;4395;48.554;8.820;2023-10-09T04:32:57;96398.19;;;13.41;58.88
8717;BME280;4395;48.554;8.820;2023-10-09T04:35:06;96388.53;;;13.36;59.25
8717;BME280;4395;48.554;8.820;2023-10-09T04:37:24;96383.00;;;13.32;59.45
8717;BME280;4395;48.554;8.820;2023-10-09T04:39:39;96392.69;;;13.32;59.80
8717;BME280;4395;48.554;8.820;2023-10-09T04:41:49;96390.59;;;13.24;59.83
8717;BME280;4395;48.554;8.820;2023-10-09T04:43:54;96394.78;;;13.25;59.63
8717;BME280;4395;48.554;8.820;2023-10-09T04:46:05;96393.19;;;13.24;59.56
8717;BME280;4395;48.554;8.820;2023-10-09T04:48:14;96392.66;;;13.22;59.90
8717;BME280;4395;48.554;8.820;2023-10-09T04:50:34;96393.72;;;13.21;60.01
8717;BME280;4395;48.554;8.820;2023-10-09T04:53:09;96400.47;;;13.17;60.06
8717;BME280;4395;48.554;8.820;2023-10-09T04:55:25;96398.94;;;13.16;59.96
8717;BME280;4395;48.554;8.820;2023-10-09T04:57:28;96402.00;;;13.08;59.73
8717;BME280;4395;48.554;8.820;2023-10-09T04:59:31;96402.78;;;13.08;59.43
8717;BME280;4395;48.554;8.820;2023-10-09T05:01:47;96402.53;;;13.10;59.60
8717;BME280;4395;48.554;8.820;2023-10-09T05:03:59;96396.78;;;13.08;60.20
8717;BME280;4395;48.554;8.820;2023-10-09T05:06:06;96393.91;;;13.09;60.33
8717;BME280;4395;48.554;8.820;2023-10-09T05:08:22;96394.16;;;13.08;59.98
8717;BME280;4395;48.554;8.820;2023-10-09T05:10:31;96402.50;;;13.05;60.25
8717;BME280;4395;48.554;8.820;2023-10-09T05:12:33;96406.19;;;13.04;60.76
8717;BME280;4395;48.554;8.820;2023-10-09T05:14:42;96406.19;;;13.04;60.26
8717;BME280;4395;48.554;8.820;2023-10-09T05:17:06;96408.25;;;13.02;60.31
8717;BME280;4395;48.554;8.820;2023-10-09T05:19:17;96415.84;;;13.03;60.45
8717;BME280;4395;48.554;8.820;2023-10-09T05:21:33;96415.06;;;13.03;60.06
8717;BME280;4395;48.554;8.820;2023-10-09T05:23:46;96420.25;;;12.97;60.17
8717;BME280;4395;48.554;8.820;2023-10-09T05:25:51;96426.25;;;12.93;60.46
8717;BME280;4395;48.554;8.820;2023-10-09T05:28:00;96425.44;;;12.92;60.29
8717;BME280;4395;48.554;8.820;2023-10-09T05:30:22;96424.69;;;12.92;60.20
8717;BME280;4395;48.554;8.820;2023-10-09T05:32:28;96428.34;;;12.91;60.67
8717;BME280;4395;48.554;8.820;2023-10-09T05:34:36;96423.63;;;12.88;60.47
8717;BME280;4395;48.554;8.820;2023-10-09T05:36:59;96427.03;;;12.93;60.13
8717;BME280;4395;48.554;8.820;2023-10-09T05:39:18;96429.66;;;12.93;59.99
8717;BME280;4395;48.554;8.820;2023-10-09T05:41:31;96429.13;;;12.96;60.62
8717;BME280;4395;48.554;8.820;2023-10-09T05:43:32;96435.66;;;12.94;60.50
8717;BME280;4395;48.554;8.820;2023-10-09T05:45:53;96430.19;;;12.95;60.77
8717;BME280;4395;48.554;8.820;2023-10-09T05:48:11;96431.75;;;12.96;60.39
8717;BME280;4395;48.554;8.820;2023-10-09T05:50:31;96423.94;;;13.02;60.98
8717;BME280;4395;48.554;8.820;2023-10-09T05:52:39;96427.34;;;13.02;61.03
8717;BME280;4395;48.554;8.820;2023-10-09T05:55:08;96425.53;;;13.03;60.71
8717;BME280;4395;48.554;8.820;2023-10-09T05:57:50;96427.09;;;13.04;60.15
8717;BME280;4395;48.554;8.820;2023-10-09T06:00:12;96439.63;;;13.02;60.87
8717;BME280;4395;48.554;8.820;2023-10-09T06:02:31;96431.78;;;13.02;60.25
8717;BME280;4395;48.554;8.820;2023-10-09T06:05:04;96431.00;;;13.01;60.18
8717;BME280;4395;48.554;8.820;2023-10-09T06:07:07;96433.38;;;13.08;60.12
8717;BME280;4395;48.554;8.820;2023-10-09T06:09:14;96426.59;;;13.12;60.36
8717;BME280;4395;48.554;8.820;2023-10-09T06:11:35;96431.34;;;13.20;60.71
8717;BME280;4395;48.554;8.820;2023-10-09T06:13:42;96436.38;;;13.26;60.38
8717;BME280;4395;48.554;8.820;2023-10-09T06:15:48;96444.50;;;13.35;60.04
8717;BME280;4395;48.554;8.820;2023-10-09T06:18:13;96451.59;;;13.40;59.54
8717;BME280;4395;48.554;8.820;2023-10-09T06:20:27;96447.94;;;13.46;59.18
8717;BME280;4395;48.554;8.820;2023-10-09T06:23:02;96454.47;;;13.53;59.07
8717;BME280;4395;48.554;8.820;2023-10-09T06:25:17;96452.94;;;13.57;58.67
8717;BME280;4395;48.554;8.820;2023-10-09T06:27:21;96457.13;;;13.63;59.19
8717;BME280;4395;48.554;8.820;2023-10-09T06:29:29;96454.00;;;13.72;59.20
8717;BME280;4395;48.554;8.820;2023-10-09T06:31:38;96452.97;;;13.78;59.11
8717;BME280;4395;48.554;8.820;2023-10-09T06:33:57;96460.31;;;13.86;58.43
8717;BME280;4395;48.554;8.820;2023-10-09T06:36:17;96461.34;;;13.90;57.93
8717;BME280;4395;48.554;8.820;2023-10-09T06:38:21;96457.97;;;13.94;58.14
8717;BME280;4395;48.554;8.820;2023-10-09T06:40:24;96458.25;;;13.98;58.12
8717;BME280;4395;48.554;8.820;2023-10-09T06:42:53;96469.22;;;14.05;57.71
8717;BME280;4395;48.554;8.820;2023-10-09T06:45:00;96467.16;;;14.07;57.87
8717;BME280;4395;48.554;8.820;2023-10-09T06:47:17;96467.69;;;14.09;57.93
8717;BME280;4395;48.554;8.820;2023-10-09T06:49:19;96469.50;;;14.19;57.82
8717;BME280;4395;48.554;8.820;2023-10-09T06:51:37;96468.75;;;14.23;57.71
8717;BME280;4395;48.554;8.820;2023-10-09T06:53:43;96468.72;;;14.28;57.94
8717;BME280;4395;48.554;8.820;2023-10-09T06:56:05;96466.91;;;14.34;58.19
8717;BME280;4395;48.554;8.820;2023-10-09T06:58:07;96472.13;;;14.39;58.23
8717;BME280;4395;48.554;8.820;2023-10-09T07:00:18;96462.47;;;14.45;58.33
8717;BME280;4395;48.554;8.820;2023-10-09T07:02:39;96474.75;;;14.49;57.60
8717;BME280;4395;48.554;8.820;2023-10-09T07:04:48;96474.25;;;14.52;57.78
8717;BME280;4395;48.554;8.820;2023-10-09T07:06:50;96477.13;;;14.51;58.03
8717;BME280;4395;48.554;8.820;2023-10-09T07:08:58;96469.25;;;14.56;57.93
8717;BME280;4395;48.554;8.820;2023-10-09T07:11:17;96470.56;;;14.63;57.20
8717;BME280;4395;48.554;8.820;2023-10-09T07:13:40;96470.81;;;14.67;57.28
8717;BME280;4395;48.554;8.820;2023-10-09T07:15:44;96480.78;;;14.70;57.08
8717;BME280;4395;48.554;8.820;2023-10-09T07:18:04;96480.75;;;14.75;57.11
8717;BME280;4395;48.554;8.820;2023-10-09T07:20:21;96482.84;;;14.78;57.39
8717;BME280;4395;48.554;8.820;2023-10-09T07:22:39;96478.16;;;14.85;57.33
8717;BME280;4395;48.554;8.820;2023-10-09T07:24:41;96475.22;;;14.92;57.56
8717;BME280;4395;48.554;8.820;2023-10-09T07:26:45;96485.16;;;15.00;57.33
8717;BME280;4395;48.554;8.820;2023-10-09T07:28:54;96479.66;;;15.06;57.35
8717;BME280;4395;48.554;8.820;2023-10-09T07:31:20;96474.91;;;15.13;57.01
8717;BME280;4395;48.554;8.820;2023-10-09T07:33:30;96472.81;;;15.16;57.27
8717;BME280;4395;48.554;8.820;2023-10-09T07:35:52;96472.50;;;15.27;56.92
8717;BME280;4395;48.554;8.820;2023-10-09T07:37:59;96478.00;;;15.31;57.00
8717;BME280;4395;48.554;8.820;2023-10-09T07:40:05;96472.72;;;15.41;56.30
8717;BME280;4395;48.554;8.820;2023-10-09T07:42:09;96472.13;;;15.49;56.23
8717;BME280;4395;48.554;8.820;2023-10-09T07:44:22;96469.00;;;15.57;56.07
8717;BME280;4395;48.554;8.820;2023-10-09T07:46:40;96478.66;;;15.67;56.22
8717;BME280;4395;48.554;8.820;2023-10-09T07:48:55;96476.22;;;15.75;55.72
8717;BME280;4395;48.554;8.820;2023-10-09T07:50:58;96475.66;;;15.83;56.31
8717;BME280;4395;48.554;8.820;2023-10-09T07:52:59;96478.00;;;15.90;56.09
8717;BME280;4395;48.554;8.820;2023-10-09T07:55:16;96473.44;;;16.01;55.71
8717;BME280;4395;48.554;8.820;2023-10-09T07:57:31;96484.91;;;16.15;55.92
8717;BME280;4395;48.554;8.820;2023-10-09T07:59:41;96486.72;;;16.19;55.20
8717;BME280;4395;48.554;8.820;2023-10-09T08:01:52;96490.03;;;16.30;55.28
8717;BME280;4395;48.554;8.820;2023-10-09T08:03:56;96489.16;;;16.45;55.21
8717;BME280;4395;48.554;8.820;2023-10-09T08:06:09;96489.38;;;16.48;54.82
8717;BME280;4395;48.554;8.820;2023-10-09T08:08:26;96492.19;;;16.57;55.13
8717;BME280;4395;48.554;8.820;2023-10-09T08:11:07;96496.56;;;16.72;54.44
8717;BME280;4395;48.554;8.820;2023-10-09T08:13:27;96497.00;;;16.84;54.69
8717;BME280;4395;48.554;8.820;2023-10-09T08:15:47;96495.81;;;16.95;54.00
8717;BME280;4395;48.554;8.820;2023-10-09T08:17:57;96494.66;;;17.06;53.92
8717;BME280;4395;48.554;8.820;2023-10-09T08:20:01;96493.56;;;17.12;53.72
8717;BME280;4395;48.554;8.820;2023-10-09T08:22:13;96490.28;;;17.20;54.16
8717;BME280;4395;48.554;8.820;2023-10-09T08:24:36;96495.44;;;17.31;53.54
8717;BME280;4395;48.554;8.820;2023-10-09T08:26:43;96489.06;;;17.37;54.10
8717;BME280;4395;48.554;8.820;2023-10-09T08:29:08;96489.44;;;17.49;53.49
8717;BME280;4395;48.554;8.820;2023-10-09T08:31:21;96493.06;;;17.53;53.41
8717;BME280;4395;48.554;8.820;2023-10-09T08:33:37;96491.38;;;17.62;53.64
8717;BME280;4395;48.554;8.820;2023-10-09T08:35:47;96490.22;;;17.73;52.99
8717;BME280;4395;48.554;8.820;2023-10-09T08:37:50;96489.06;;;17.79;53.30
8717;BME280;4395;48.554;8.820;2023-10-09T08:39:54;96487.94;;;17.85;53.01
8717;BME280;4395;48.554;8.820;2023-10-09T08:41:57;96486.72;;;17.96;52.86
8717;BME280;4395;48.554;8.820;2023-10-09T08:44:01;96493.19;;;18.04;53.27
8717;BME280;4395;48.554;8.820;2023-10-09T08:46:05;96479.38;;;18.12;52.65
8717;BME280;4395;48.554;8.820;2023-10-09T08:48:08;96485.28;;;18.23;52.46
8717;BME280;4395;48.554;8.820;2023-10-09T08:50:18;96484.06;;;18.34;52.25
8717;BME280;4395;48.554;8.820;2023-10-09T08:52:23;96478.63;;;18.44;51.73
8717;BME280;4395;48.554;8.820;2023-10-09T08:54:26;96477.94;;;18.52;52.13
8717;BME280;4395;48.554;8.820;2023-10-09T08:56:34;96475.00;;;18.59;51.84
8717;BME280;4395;48.554;8.820;2023-10-09T08:58:37;96481.50;;;18.61;52.05
8717;BME280;4395;48.554;8.820;2023-10-09T09:00:42;96481.94;;;18.68;51.82
8717;BME280;4395;48.554;8.820;2023-10-09T09:02:47;96485.47;;;18.78;51.54
8717;BME280;4395;48.554;8.820;2023-10-09T09:04:50;96494.28;;;18.87;51.84
8717;BME280;4395;48.554;8.820;2023-10-09T09:06:55;96494.09;;;18.97;51.74
8717;BME280;4395;48.554;8.820;2023-10-09T09:09:10;96492.34;;;19.06;51.12
8717;BME280;4395;48.554;8.820;2023-10-09T09:11:17;96496.09;;;19.19;50.82
8717;BME280;4395;48.554;8.820;2023-10-09T09:13:24;96491.59;;;19.19;50.76
8717;BME280;4395;48.554;8.820;2023-10-09T09:15:27;96492.75;;;19.27;50.45
8717;BME280;4395;48.554;8.820;2023-10-09T09:17:32;96494.69;;;19.35;50.29
8717;BME280;4395;48.554;8.820;2023-10-09T09:19:37;96496.34;;;19.44;49.84
8717;BME280;4395;48.554;8.820;2023-10-09T09:21:41;96495.69;;;19.53;49.54
8717;BME280;4395;48.554;8.820;2023-10-09T09:23:53;96497.84;;;19.64;49.31
8717;BME280;4395;48.554;8.820;2023-10-09T09:25:57;96511.91;;;19.73;48.20
8717;BME280;4395;48.554;8.820;2023-10-09T09:28:04;96512.91;;;19.77;48.47
8717;BME280;4395;48.554;8.820;2023-10-09T09:30:22;96513.06;;;19.81;48.36
8717;BME280;4395;48.554;8.820;2023-10-09T09:32:28;96512.25;;;19.94;47.69
8717;BME280;4395;48.554;8.820;2023-10-09T09:34:43;96510.50;;;20.03;47.24
8717;BME280;4395;48.554;8.820;2023-10-09T09:36:50;96513.50;;;20.10;47.00
8717;BME280;4395;48.554;8.820;2023-10-09T09:38:57;96509.72;;;20.25;47.01
8717;BME280;4395;48.554;8.820;2023-10-09T09:41:03;96519.22;;;20.40;46.34
8717;BME280;4395;48.554;8.820;2023-10-09T09:43:09;96524.25;;;20.50;45.94
8717;BME280;4395;48.554;8.820;2023-10-09T09:45:23;96528.09;;;20.66;45.70
8717;BME280;4395;48.554;8.820;2023-10-09T09:47:26;96528.94;;;20.75;45.93
8717;BME280;4395;48.554;8.820;2023-10-09T09:49:30;96527.94;;;20.94;45.80
8717;BME280;4395;48.554;8.820;2023-10-09T09:51:33;96535.63;;;21.04;45.66
8717;BME280;4395;48.554;8.820;2023-10-09T09:53:36;96527.41;;;21.14;45.98
8717;BME280;4395;48.554;8.820;2023-10-09T09:55:41;96519.69;;;21.26;45.37
8717;BME280;4395;48.554;8.820;2023-10-09T09:57:44;96523.19;;;21.35;45.05
8717;BME280;4395;48.554;8.820;2023-10-09T09:59:54;96519.16;;;21.46;45.05
8717;BME280;4395;48.554;8.820;2023-10-09T10:01:59;96523.56;;;21.60;45.11
8717;BME280;4395;48.554;8.820;2023-10-09T10:04:10;96519.06;;;21.77;44.37
8717;BME280;4395;48.554;8.820;2023-10-09T10:06:18;96529.84;;;21.98;43.47
8717;BME280;4395;48.554;8.820;2023-10-09T10:08:23;96523.06;;;22.14;43.08
8717;BME280;4395;48.554;8.820;2023-10-09T10:10:34;96518.97;;;22.34;43.06
8717;BME280;4395;48.554;8.820;2023-10-09T10:12:52;96514.91;;;22.54;42.67
8717;BME280;4395;48.554;8.820;2023-10-09T10:15:05;96514.09;;;22.71;41.84
8717;BME280;4395;48.554;8.820;2023-10-09T10:17:16;96516.44;;;22.89;40.10
8717;BME280;4395;48.554;8.820;2023-10-09T10:19:20;96515.16;;;22.95;40.88
8717;BME280;4395;48.554;8.820;2023-10-09T10:21:28;96510.16;;;23.03;39.17
8717;BME280;4395;48.554;8.820;2023-10-09T10:23:42;96518.25;;;23.15;40.38
8717;BME280;4395;48.554;8.820;2023-10-09T10:25:48;96518.81;;;23.29;40.27
8717;BME280;4395;48.554;8.820;2023-10-09T10:28:20;96521.25;;;23.51;39.60
8717;BME280;4395;48.554;8.820;2023-10-09T10:30:45;96514.72;;;23.69;38.95
8717;BME280;4395;48.554;8.820;2023-10-09T10:32:55;96512.97;;;23.74;36.54
8717;BME280;4395;48.554;8.820;2023-10-09T10:34:59;96524.97;;;23.80;34.78
8717;BME280;4395;48.554;8.820;2023-10-09T10:37:08;96516.81;;;23.85;35.34
8717;BME280;4395;48.554;8.820;2023-10-09T10:39:13;96510.00;;;23.96;34.98
8717;BME280;4395;48.554;8.820;2023-10-09T10:41:23;96513.66;;;24.12;34.56
8717;BME280;4395;48.554;8.820;2023-10-09T10:43:27;96516.41;;;24.24;34.57
8717;BME280;4395;48.554;8.820;2023-10-09T10:45:49;96515.00;;;24.18;33.46
8717;BME280;4395;48.554;8.820;2023-10-09T10:47:57;96508.13;;;24.17;33.38
8717;BME280;4395;48.554;8.820;2023-10-09T10:50:01;96513.34;;;24.34;33.60
8717;BME280;4395;48.554;8.820;2023-10-09T10:52:27;96504.59;;;24.67;32.94
8717;BME280;4395;48.554;8.820;2023-10-09T10:54:44;96501.75;;;24.84;32.81
8717;BME280;4395;48.554;8.820;2023-10-09T10:56:47;96499.16;;;24.96;32.73
8717;BME280;4395;48.554;8.820;2023-10-09T10:58:55;96499.03;;;24.93;32.70
8717;BME280;4395;48.554;8.820;2023-10-09T11:01:11;96496.94;;;24.98;31.84
8717;BME280;4395;48.554;8.820;2023-10-09T11:03:18;96507.38;;;25.03;32.46
8717;BME280;4395;48.554;8.820;2023-10-09T11:05:31;96508.72;;;25.09;32.09
8717;BME280;4395;48.554;8.820;2023-10-09T11:07:41;96515.38;;;25.03;32.15
8717;BME280;4395;48.554;8.820;2023-10-09T11:09:46;96507.16;;;24.96;31.40
8717;BME280;4395;48.554;8.820;2023-10-09T11:12:10;96509.94;;;24.79;31.92
8717;BME280;4395;48.554;8.820;2023-10-09T11:14:24;96515.09;;;24.84;31.67
8717;BME280;4395;48.554;8.820;2023-10-09T11:16:26;96519.31;;;24.85;31.95
8717;BME280;4395;48.554;8.820;2023-10-09T11:18:43;96505.81;;;24.69;31.59
8717;BME280;4395;48.554;8.820;2023-10-09T11:20:49;96506.59;;;24.70;31.85
8717;BME280;4395;48.554;8.820;2023-10-09T11:23:15;96510.66;;;24.55;31.42
8717;BME280;4395;48.554;8.820;2023-10-09T11:25:18;96509.06;;;24.42;30.65
8717;BME280;4395;48.554;8.820;2023-10-09T11:27:20;96518.72;;;24.47;31.13
8717;BME280;4395;48.554;8.820;2023-10-09T11:29:27;96515.63;;;24.45;31.41
8717;BME280;4395;48.554;8.820;2023-10-09T11:31:33;96514.97;;;24.48;32.24
8717;BME280;4395;48.554;8.820;2023-10-09T11:33:45;96503.00;;;24.54;31.51
8717;BME280;4395;48.554;8.820;2023-10-09T11:35:55;96505.91;;;24.61;32.56
8717;BME280;4395;48.554;8.820;2023-10-09T11:37:59;96501.44;;;24.53;31.23
8717;BME280;4395;48.554;8.820;2023-10-09T11:40:02;96503.03;;;24.33;31.68
8717;BME280;4395;48.554;8.820;2023-10-09T11:42:24;96511.56;;;24.26;31.52
8717;BME280;4395;48.554;8.820;2023-10-09T11:44:42;96509.22;;;24.25;32.28
8717;BME280;4395;48.554;8.820;2023-10-09T11:46:56;96500.69;;;24.31;32.63